Time;durP1;ratioP1;P1;durP2;ratioP2;P2;SDS_P1;SDS_P2;PMS_P1;PMS_P2;Temp;Humidity;BMP_temperature;BMP_pressure;BME280_temperature;BME280_humidity;BME280_pressure;Samples;Min_cycle;Max_cycle;Signal;HPM_P1;HPM_P2
2024/04/15 00:00:39;;;;;;;3.80;0.85;;;;;;;25.56;33.67;101480.97;4555178;26;20005;-63
2024/04/15 00:02:42;;;;;;;3.67;0.90;;;;;;;25.58;33.56;101485.22;4549767;26;20002;-63
2024/04/15 00:04:44;;;;;;;4.53;1.10;;;;;;;25.62;33.37;101488.50;4543984;26;20090;-63
2024/04/15 00:06:49;;;;;;;3.55;1.13;;;;;;;25.59;33.32;101480.69;4562170;26;20030;-63
2024/04/15 00:08:51;;;;;;;4.20;1.10;;;;;;;25.61;33.65;101484.94;4541471;26;20293;-63
2024/04/15 00:10:52;;;;;;;;;;;;;;;25.62;33.65;101481.25;4554242;26;20013;-62
2024/04/15 00:12:54;;;;;;;3.15;0.90;;;;;;;25.60;33.02;101477.88;4551655;26;19924;-62
2024/04/15 00:14:56;;;;;;;;;;;;;;;25.62;33.18;101478.56;4544275;26;20003;-63
2024/04/15 00:16:58;;;;;;;4.65;0.95;;;;;;;25.59;33.17;101476.16;4550929;26;20247;-62
2024/04/15 00:18:59;;;;;;;4.25;1.02;;;;;;;25.64;33.06;101481.16;4571991;25;20008;-61
2024/04/15 00:21:02;;;;;;;;;;;;;;;25.61;33.53;101468.78;4562371;25;20016;-63
2024/04/15 00:23:04;;;;;;;3.88;1.20;;;;;;;25.55;33.14;101458.53;4576172;25;19923;-63
2024/04/15 00:25:06;;;;;;;3.17;0.90;;;;;;;25.59;32.87;101462.69;4601886;25;20441;-63
2024/04/15 00:27:08;;;;;;;;;;;;;;;25.60;33.04;101461.72;4562872;26;20066;-63
2024/04/15 00:29:12;;;;;;;4.20;1.00;;;;;;;25.57;33.19;101464.66;4541571;26;20353;-63
2024/04/15 00:31:14;;;;;;;3.42;1.10;;;;;;;25.58;33.24;101460.97;4549045;26;20005;-62
2024/04/15 00:33:16;;;;;;;;;;;;;;;25.61;32.94;101467.94;4556315;25;20016;-62
2024/04/15 00:35:17;;;;;;;3.03;0.88;;;;;;;25.59;33.44;101460.00;4541404;26;19935;-61
2024/04/15 00:37:19;;;;;;;;;;;;;;;25.62;33.41;101473.19;4563016;26;20012;-61
2024/04/15 00:39:22;;;;;;;4.38;1.00;;;;;;;25.60;33.12;101466.22;4542044;26;19935;-61
2024/04/15 00:41:24;;;;;;;3.67;0.95;;;;;;;25.55;32.68;101452.31;4545428;26;20017;-62
2024/04/15 00:43:25;;;;;;;3.60;0.82;;;;;;;25.62;32.46;101461.56;4558971;26;20500;-62
2024/04/15 00:45:29;;;;;;;3.22;0.88;;;;;;;25.65;33.06;101466.66;4541099;26;20034;-62
2024/04/15 00:47:31;;;;;;;3.25;1.15;;;;;;;25.62;33.47;101454.31;4559660;26;20010;-62
2024/04/15 00:49:33;;;;;;;;;;;;;;;25.64;33.05;101463.13;4545205;25;20021;-62
2024/04/15 00:51:37;;;;;;;2.42;0.73;;;;;;;25.57;32.59;101442.28;4543337;26;19923;-63
2024/04/15 00:53:41;;;;;;;4.07;0.90;;;;;;;25.63;32.73;101447.94;4551802;26;20053;-61
2024/04/15 00:55:46;;;;;;;5.57;1.15;;;;;;;25.64;32.43;101452.34;4569358;25;20008;-62
2024/04/15 00:57:50;;;;;;;3.10;0.93;;;;;;;25.61;33.00;101438.31;4552282;25;20002;-62
2024/04/15 00:59:52;;;;;;;4.55;1.17;;;;;;;25.61;32.60;101443.69;4567202;26;20001;-63
2024/04/15 01:01:58;;;;;;;3.90;1.05;;;;;;;25.63;32.88;101444.41;4568394;25;20006;-63
2024/04/15 01:04:00;;;;;;;3.42;1.08;;;;;;;25.61;32.51;101433.75;4551261;26;20427;-63
2024/04/15 01:06:03;;;;;;;4.22;1.00;;;;;;;25.62;32.74;101426.53;4571398;25;20012;-63
2024/04/15 01:08:05;;;;;;;2.95;0.88;;;;;;;25.62;32.40;101418.47;4552092;26;20006;-63
2024/04/15 01:10:10;;;;;;;3.67;1.08;;;;;;;25.65;33.24;101423.56;4565565;26;20046;-63
2024/04/15 01:12:12;;;;;;;4.53;1.10;;;;;;;25.61;32.64;101417.59;4568373;25;20001;-63
2024/04/15 01:14:14;;;;;;;3.65;0.90;;;;;;;25.66;32.66;101420.75;4550284;25;20009;-62
2024/04/15 01:16:16;;;;;;;;;;;;;;;25.66;32.45;101425.28;4571852;25;20339;-62
2024/04/15 01:18:19;;;;;;;4.38;0.90;;;;;;;25.62;33.13;101426.53;4555719;26;19934;-62
2024/04/15 01:20:23;;;;;;;5.82;1.10;;;;;;;25.62;33.23;101421.16;4564038;26;20001;-63
2024/04/15 01:22:37;;;;;;;3.78;0.93;;;;;;;25.64;32.83;101413.81;4566877;25;20001;-63
2024/04/15 01:24:40;;;;;;;5.45;1.23;;;;;;;25.62;32.48;101418.47;4550845;26;20001;-63
2024/04/15 01:26:46;;;;;;;3.35;0.80;;;;;;;25.62;32.42;101418.47;4569535;26;20543;-62
2024/04/15 01:28:48;;;;;;;3.83;0.82;;;;;;;25.62;32.80;101422.00;4552808;25;20006;-63
2024/04/15 01:30:50;;;;;;;6.18;1.13;;;;;;;25.60;32.60;101415.91;4566150;26;20001;-63
2024/04/15 01:32:52;;;;;;;3.38;1.00;;;;;;;25.60;32.51;101424.00;4568273;25;20017;-62
2024/04/15 01:34:54;;;;;;;5.03;0.98;;;;;;;25.62;32.51;101426.53;4548788;26;20020;-63
2024/04/15 01:36:56;;;;;;;5.57;1.00;;;;;;;25.61;32.57;101422.97;4569738;26;20001;-63
2024/04/15 01:38:58;;;;;;;;;;;;;;;25.60;32.29;101424.00;4556254;25;20006;-63
2024/04/15 01:41:02;;;;;;;2.90;0.90;;;;;;;25.55;32.28;101403.84;4563989;26;19971;-63
2024/04/15 01:43:07;;;;;;;5.03;1.15;;;;;;;25.55;32.40;101404.66;4567474;26;20006;-63
2024/04/15 01:45:08;;;;;;;;;;;;;;;25.60;32.03;101406.97;4548940;26;20348;-63
2024/04/15 01:47:10;;;;;;;3.88;1.00;;;;;;;25.52;32.56;101404.97;4569379;26;19923;-63
2024/04/15 01:49:12;;;;;;;5.10;1.23;;;;;;;25.58;32.95;101420.56;4556837;25;20006;-63
2024/04/15 01:51:14;;;;;;;4.93;0.93;;;;;;;25.55;32.56;101414.59;4561595;26;20017;-63
2024/04/15 01:53:16;;;;;;;;;;;;;;;25.57;32.08;101413.47;4568590;25;20006;-63
2024/04/15 01:55:17;;;;;;;4.20;1.35;;;;;;;25.51;32.39;101408.63;4549940;26;19924;-63
2024/04/15 01:57:20;;;;;;;4.28;1.10;;;;;;;25.53;32.95;101420.13;4570358;26;20009;-63
2024/04/15 01:59:22;;;;;;;4.00;0.90;;;;;;;25.52;32.47;101413.88;4559869;25;20479;-64
2024/04/15 02:01:23;;;;;;;2.63;0.77;;;;;;;25.50;32.14;101418.53;4558515;26;20072;-63
2024/04/15 02:03:25;;;;;;;4.88;1.23;;;;;;;25.51;32.37;101416.72;4570255;25;20026;-63
2024/04/15 02:05:27;;;;;;;;;;;;;;;25.51;33.02;101417.56;4548712;26;20020;-63
2024/04/15 02:07:29;;;;;;;3.92;1.10;;;;;;;25.48;32.56;101425.94;4570705;26;20008;-63
2024/04/15 02:09:31;;;;;;;5.20;1.00;;;;;;;25.46;32.74;101409.03;4562846;25;20005;-63
2024/04/15 02:11:32;;;;;;;;;;;;;;;25.51;32.06;101416.72;4555287;26;20006;-63
2024/04/15 02:13:34;;;;;;;4.07;0.90;;;;;;;25.46;32.50;101406.34;4571848;26;19923;-61
2024/04/15 02:15:36;;;;;;;;;;;;;;;25.50;32.09;101413.16;4552581;25;20006;-63
2024/04/15 02:17:37;;;;;;;6.63;1.10;;;;;;;25.44;32.48;101396.69;4572350;26;19923;-63
2024/04/15 02:19:39;;;;;;;3.88;1.02;;;;;;;25.47;32.65;101396.41;4567040;26;20021;-63
2024/04/15 02:21:41;;;;;;;3.50;0.80;;;;;;;25.49;32.14;101403.41;4554999;26;20002;-63
2024/04/15 02:23:43;;;;;;;;;;;;;;;25.48;32.11;101399.00;4601623;25;20039;-63
2024/04/15 02:25:44;;;;;;;4.35;1.10;;;;;;;25.46;32.71;101397.44;4569667;25;19931;-63
2024/04/15 02:27:46;;;;;;;5.30;1.30;;;;;;;25.47;32.44;101391.03;4547425;25;20013;-63
2024/04/15 02:29:48;;;;;;;4.88;1.30;;;;;;;25.47;32.56;101389.19;4544998;26;20078;-63
2024/04/15 02:31:50;;;;;;;;;;;;;;;25.46;32.27;101387.50;4558257;26;20013;-63
2024/04/15 02:33:52;;;;;;;3.75;1.08;;;;;;;25.43;32.23;101387.78;4543305;26;19931;-64
2024/04/15 02:35:53;;;;;;;5.43;1.13;;;;;;;25.42;32.42;101375.31;4558048;26;20019;-63
2024/04/15 02:37:55;;;;;;;;;;;;;;;25.45;32.42;101379.56;4551010;25;20079;-63
2024/04/15 02:39:57;;;;;;;4.97;1.10;;;;;;;25.41;32.28;101370.91;4545071;26;20222;-63
2024/04/15 02:41:58;;;;;;;4.53;1.05;;;;;;;25.43;32.39;101358.16;4562911;26;20007;-63
2024/04/15 02:44:00;;;;;;;;;;;;;;;25.46;31.95;101349.78;4543196;26;20013;-63
2024/04/15 02:46:02;;;;;;;3.50;0.88;;;;;;;25.42;32.05;101355.59;4554840;26;19930;-62
2024/04/15 02:48:04;;;;;;;4.38;1.05;;;;;;;25.42;32.45;101369.91;4553164;25;20005;-63
2024/04/15 02:50:06;;;;;;;5.05;1.30;;;;;;;25.46;31.88;101374.03;4545042;26;20010;-63
2024/04/15 02:52:08;;;;;;;4.63;1.20;;;;;;;25.45;32.08;101366.94;4563002;26;20012;-62
2024/04/15 02:54:10;;;;;;;4.93;1.20;;;;;;;25.47;32.51;101366.78;4542766;26;20002;-62
2024/04/15 02:56:12;;;;;;;5.45;1.15;;;;;;;25.47;32.46;101369.47;4551532;26;20013;-62
2024/04/15 02:58:14;;;;;;;4.40;1.10;;;;;;;25.43;31.93;101362.69;4555539;26;20013;-62
2024/04/15 03:00:16;;;;;;;4.75;1.00;;;;;;;25.46;32.08;101370.50;4542554;26;20006;-64
2024/04/15 03:02:18;;;;;;;5.22;1.40;;;;;;;25.45;32.64;101375.00;4563471;26;20459;-63
2024/04/15 03:04:19;;;;;;;6.13;1.40;;;;;;;25.44;32.11;101367.91;4542595;26;20010;-63
2024/04/15 03:06:22;;;;;;;4.85;1.20;;;;;;;25.38;32.60;101359.53;4548846;26;20443;-62
2024/04/15 03:08:24;;;;;;;;;;;;;;;25.42;31.76;101371.75;4559101;25;20006;-63
2024/04/15 03:10:26;;;;;;;4.28;1.33;;;;;;;25.38;32.31;101370.31;4542152;26;20039;-63
2024/04/15 03:12:28;;;;;;;5.35;1.10;;;;;;;25.40;32.43;101371.88;4561585;26;20041;-63
2024/04/15 03:14:30;;;;;;;5.68;1.60;;;;;;;25.42;32.12;101374.44;4544211;25;20013;-63
2024/04/15 03:16:32;;;;;;;4.65;1.20;;;;;;;25.42;32.00;101386.06;4546828;26;20013;-63
2024/04/15 03:18:34;;;;;;;6.25;1.42;;;;;;;25.42;31.98;101377.13;4560833;25;20520;-62
2024/04/15 03:20:36;;;;;;;;;;;;;;;25.43;31.87;101381.53;4543002;26;20006;-63
2024/04/15 03:22:37;;;;;;;5.78;1.30;;;;;;;25.38;31.82;101368.47;4571225;25;19923;-63
2024/04/15 03:24:40;;;;;;;;;;;;;;;25.39;32.56;101372.03;4577402;25;20001;-63
2024/04/15 03:26:42;;;;;;;4.05;1.17;;;;;;;25.35;32.69;101374.94;4569982;25;19923;-62
2024/04/15 03:28:44;;;;;;;5.57;1.38;;;;;;;25.37;32.56;101364.03;4552262;25;20005;-63
2024/04/15 03:30:46;;;;;;;;;;;;;;;25.37;32.11;101358.66;4573450;25;20316;-63
2024/04/15 03:32:47;;;;;;;5.25;1.17;;;;;;;25.33;31.91;101365.31;4558612;26;19923;-63
2024/04/15 03:34:49;;;;;;;6.20;1.27;;;;;;;25.33;32.73;101359.91;4549375;25;20046;-63
2024/04/15 03:36:51;;;;;;;;;;;;;;;25.34;32.30;101365.16;4545336;26;20043;-63
2024/04/15 03:38:53;;;;;;;4.57;1.20;;;;;;;25.32;32.46;101360.91;4562510;26;20265;-63
2024/04/15 03:40:54;;;;;;;;;;;;;;;25.33;32.34;101368.84;4540993;26;20002;-63
2024/04/15 03:42:56;;;;;;;7.05;1.40;;;;;;;25.29;31.91;101361.19;4554377;26;20644;-64
2024/04/15 03:44:58;;;;;;;4.75;1.13;;;;;;;25.33;31.82;101362.63;4552116;25;20031;-63
2024/04/15 03:47:01;;;;;;;4.88;1.13;;;;;;;25.29;32.22;101353.94;4544482;26;20337;-63
2024/04/15 03:49:03;;;;;;;;;;;;;;;25.33;32.21;101355.38;4562925;25;20029;-63
2024/04/15 03:51:05;;;;;;;5.55;1.30;;;;;;;25.29;32.35;101353.94;4542167;26;19932;-63
2024/04/15 03:53:06;;;;;;;6.40;1.25;;;;;;;25.30;31.86;101346.72;4551273;26;20016;-63
2024/04/15 03:55:08;;;;;;;;;;;;;;;25.30;31.91;101347.59;4555334;26;20002;-63
2024/04/15 03:57:10;;;;;;;5.65;1.30;;;;;;;25.29;32.09;101345.03;4542369;26;19931;-63
2024/04/15 03:59:12;;;;;;;5.43;1.48;;;;;;;25.30;32.47;101341.34;4549706;26;20002;-62
2024/04/15 04:01:14;;;;;;;;;;;;;;;25.29;32.65;101334.25;4572816;25;20447;-63
2024/04/15 04:03:16;;;;;;;6.45;1.25;;;;;;;25.25;32.21;101330.13;4565074;26;20258;-63
2024/04/15 04:05:18;;;;;;;5.18;1.13;;;;;;;25.24;32.19;101326.59;4556891;26;20013;-62
2024/04/15 04:07:21;;;;;;;6.00;1.50;;;;;;;25.26;32.10;101331.84;4572071;25;20069;-62
2024/04/15 04:09:23;;;;;;;3.60;1.13;;;;;;;25.26;32.29;101329.13;4550647;25;20010;-63
2024/04/15 04:11:27;;;;;;;;;;;;;;;25.25;32.46;101317.53;4571691;26;20016;-62
2024/04/15 04:13:29;;;;;;;4.97;1.20;;;;;;;25.19;32.84;101313.53;4566663;25;20296;-62
2024/04/15 04:15:35;;;;;;;;;;;;;;;25.25;32.75;101322.03;4555599;26;20015;-62
2024/04/15 04:17:37;;;;;;;4.57;0.98;;;;;;;25.23;32.49;101326.75;4572362;25;19930;-63
2024/04/15 04:19:39;;;;;;;4.93;1.30;;;;;;;25.24;32.17;101323.03;4551344;25;20463;-63
2024/04/15 04:21:41;;;;;;;;;;;;;;;25.24;31.72;101323.03;4570110;26;20016;-63
2024/04/15 04:23:43;;;;;;;3.53;1.08;;;;;;;25.20;32.71;101325.13;4580434;25;19924;-63
2024/04/15 04:25:46;;;;;;;5.82;1.30;;;;;;;25.23;32.43;101318.66;4561010;25;20521;-63
2024/04/15 04:27:48;;;;;;;5.90;1.25;;;;;;;25.19;32.35;101316.22;4541584;26;20020;-63
2024/04/15 04:29:50;;;;;;;4.88;1.23;;;;;;;25.24;31.95;101323.91;4557796;26;20005;-62
2024/04/15 04:31:52;;;;;;;;;;;;;;;25.22;31.78;101323.19;4546569;25;20006;-61
2024/04/15 04:33:54;;;;;;;3.45;1.08;;;;;;;25.17;32.39;101320.88;4543979;26;19932;-62
2024/04/15 04:35:55;;;;;;;;;;;;;;;25.19;32.53;101337.75;4561864;26;20002;-61
2024/04/15 04:37:57;;;;;;;4.57;1.30;;;;;;;25.12;32.22;101333.91;4541125;26;20250;-62
2024/04/15 04:39:59;;;;;;;4.70;1.20;;;;;;;25.17;32.34;101326.28;4556078;26;20463;-62
2024/04/15 04:42:01;;;;;;;5.32;1.30;;;;;;;25.17;31.70;101315.50;4549222;26;20006;-62
2024/04/15 04:44:03;;;;;;;;;;;;;;;25.18;32.62;101309.13;4544370;26;20002;-62
2024/04/15 04:46:11;;;;;;;4.53;1.45;;;;;;;25.14;31.84;101310.41;4561996;26;19924;-62
2024/04/15 04:48:13;;;;;;;4.55;1.10;;;;;;;25.14;32.04;101310.41;4541462;26;20021;-62
2024/04/15 04:50:15;;;;;;;;;;;;;;;25.17;31.82;101309.28;4555207;26;20041;-61
2024/04/15 04:52:17;;;;;;;4.57;1.25;;;;;;;25.14;31.83;101307.72;4549606;25;19936;-61
2024/04/15 04:54:19;;;;;;;5.25;1.05;;;;;;;25.12;32.57;101304.28;4543732;26;20016;-61
2024/04/15 04:56:21;;;;;;;6.45;1.40;;;;;;;25.13;32.01;101292.56;4561963;26;20016;-62
2024/04/15 04:58:23;;;;;;;5.75;1.30;;;;;;;25.15;32.20;101301.34;4541102;26;20702;-60
2024/04/15 05:00:25;;;;;;;5.28;1.27;;;;;;;25.13;32.43;101305.13;4551949;26;20002;-61
2024/04/15 05:02:27;;;;;;;4.35;1.27;;;;;;;25.16;32.25;101296.81;4552739;25;20037;-61
2024/04/15 05:04:29;;;;;;;6.15;1.17;;;;;;;25.15;32.05;101306.72;4541917;26;20018;-61
2024/04/15 05:06:32;;;;;;;4.55;1.40;;;;;;;25.13;32.07;101308.69;4561751;26;20001;-62
2024/04/15 05:08:34;;;;;;;;;;;;;;;25.11;31.76;101299.91;4542022;26;20034;-61
2024/04/15 05:10:36;;;;;;;3.78;1.05;;;;;;;25.06;32.14;101298.63;4524937;26;19966;-61
2024/04/15 05:12:38;;;;;;;4.38;1.27;;;;;;;25.09;32.46;101295.63;4555011;25;20006;-61
2024/04/15 05:14:39;;;;;;;;;;;;;;;25.10;31.79;101287.41;4539855;26;20003;-62
2024/04/15 05:16:41;;;;;;;4.68;1.10;;;;;;;25.06;32.17;101279.78;4561748;26;19934;-62
2024/04/15 05:18:43;;;;;;;6.20;1.60;;;;;;;25.05;32.17;101268.16;4539295;26;20049;-62
2024/04/15 05:20:46;;;;;;;6.40;1.13;;;;;;;25.06;32.63;101274.41;4546057;26;20002;-61
2024/04/15 05:22:47;;;;;;;;;;;;;;;25.08;32.59;101272.41;4585104;25;20012;-61
2024/04/15 05:24:50;;;;;;;5.18;1.17;;;;;;;25.02;32.24;101266.59;4602025;25;19994;-61
2024/04/15 05:26:52;;;;;;;5.25;1.55;;;;;;;25.07;32.10;101276.06;4566113;25;20001;-61
2024/04/15 05:28:58;;;;;;;5.80;1.40;;;;;;;25.04;32.05;101278.06;4542276;25;20002;-64
2024/04/15 05:31:00;;;;;;;4.63;1.10;;;;;;;25.04;32.10;101278.06;4545047;26;20006;-62
2024/04/15 05:33:02;;;;;;;4.35;1.17;;;;;;;25.03;32.13;101265.59;4558684;25;20017;-62
2024/04/15 05:35:05;;;;;;;4.55;1.35;;;;;;;25.05;32.59;101273.53;4538624;26;20002;-61
2024/04/15 05:37:06;;;;;;;4.82;1.02;;;;;;;25.03;32.68;101281.75;4559118;26;20012;-62
2024/04/15 05:39:08;;;;;;;6.35;1.42;;;;;;;25.03;32.36;101292.50;4544694;25;20594;-61
2024/04/15 05:41:10;;;;;;;;;;;;;;;25.01;32.20;101288.25;4543411;26;20033;-62
2024/04/15 05:43:12;;;;;;;5.15;1.45;;;;;;;24.99;32.68;101285.69;4561123;26;19924;-62
2024/04/15 05:45:15;;;;;;;4.70;1.30;;;;;;;24.98;32.70;101289.38;4540669;26;20013;-63
2024/04/15 05:47:16;;;;;;;;;;;;;;;24.99;32.33;101291.06;4556556;26;20331;-62
2024/04/15 05:49:18;;;;;;;6.45;1.30;;;;;;;24.94;32.40;101285.25;4549270;26;19924;-62
2024/04/15 05:51:20;;;;;;;5.80;1.27;;;;;;;24.97;32.63;101281.41;4545926;26;20001;-62
2024/04/15 05:53:22;;;;;;;3.92;1.17;;;;;;;24.96;32.22;101274.34;4563837;26;20002;-61
2024/04/15 05:55:24;;;;;;;7.63;1.27;;;;;;;24.97;32.19;101276.03;4543696;26;20009;-61
2024/04/15 05:57:26;;;;;;;4.32;1.25;;;;;;;24.99;32.27;101279.47;4556176;26;20005;-62
2024/04/15 05:59:28;;;;;;;;;;;;;;;24.99;32.48;101284.84;4553457;25;20005;-61
2024/04/15 06:01:29;;;;;;;5.47;1.25;;;;;;;24.96;32.41;101295.84;4545631;26;19924;-61
2024/04/15 06:03:32;;;;;;;4.55;1.23;;;;;;;24.94;32.20;101287.94;4563486;26;20081;-62
2024/04/15 06:05:34;;;;;;;5.15;1.40;;;;;;;24.98;32.19;101288.50;4543004;26;20403;-62
2024/04/15 06:07:36;;;;;;;4.90;1.20;;;;;;;24.98;31.80;101299.28;4553504;26;20002;-60
2024/04/15 06:09:39;;;;;;;4.45;1.17;;;;;;;24.96;31.80;101287.78;4555972;25;20002;-61
2024/04/15 06:11:42;;;;;;;6.82;1.63;;;;;;;24.97;31.83;101284.13;4543630;26;20439;-62
2024/04/15 06:13:44;;;;;;;5.90;1.23;;;;;;;24.94;32.20;101279.03;4564889;25;20012;-61
2024/04/15 06:15:45;;;;;;;5.20;1.25;;;;;;;24.95;32.15;101281.56;4543139;26;20075;-62
2024/04/15 06:17:47;;;;;;;;;;;;;;;24.95;32.28;101283.41;4549331;26;20366;-60
2024/04/15 06:19:49;;;;;;;5.68;0.90;;;;;;;24.89;32.40;101276.72;4558196;25;20302;-61
2024/04/15 06:21:51;;;;;;;4.40;1.08;;;;;;;24.94;32.50;101279.03;4543200;26;20002;-61
2024/04/15 06:23:53;;;;;;;6.10;1.20;;;;;;;24.92;32.59;101284.50;4565499;25;20423;-61
2024/04/15 06:25:55;;;;;;;;;;;;;;;24.93;32.22;101288.91;4544115;25;20013;-62
2024/04/15 06:27:57;;;;;;;5.90;1.75;;;;;;;24.88;32.30;101294.69;4547834;26;20045;-62
2024/04/15 06:29:59;;;;;;;6.07;1.50;;;;;;;24.83;31.68;101283.47;4560786;25;19998;-61
2024/04/15 06:32:00;;;;;;;;;;;;;;;24.91;32.35;101298.97;4543756;26;20017;-64
2024/04/15 06:34:02;;;;;;;5.95;1.70;;;;;;;24.86;31.83;101296.69;4561313;26;19930;-63
2024/04/15 06:36:05;;;;;;;7.07;1.48;;;;;;;24.88;32.31;101300.06;4546282;26;20333;-64
2024/04/15 06:38:09;;;;;;;7.22;1.63;;;;;;;24.79;32.17;101294.66;4545066;26;20021;-61
2024/04/15 06:40:11;;;;;;;5.55;1.50;;;;;;;24.90;31.86;101304.47;4553737;26;20001;-62
2024/04/15 06:42:13;;;;;;;6.10;1.80;;;;;;;24.83;31.67;101286.19;4571420;26;20412;-64
2024/04/15 06:44:15;;;;;;;7.13;2.05;;;;;;;24.89;31.78;101298.25;4556054;25;20006;-62
2024/04/15 06:46:17;;;;;;;6.82;1.52;;;;;;;24.86;32.20;101285.06;4567758;26;20343;-62
2024/04/15 06:48:20;;;;;;;6.20;1.50;;;;;;;24.89;31.87;101279.41;4569908;25;20002;-62
2024/04/15 06:50:22;;;;;;;5.70;1.42;;;;;;;24.90;31.80;101277.56;4552443;25;20304;-62
2024/04/15 06:52:24;;;;;;;5.28;1.42;;;;;;;24.88;31.71;101275.84;4573147;26;20009;-62
2024/04/15 06:54:28;;;;;;;5.25;1.48;;;;;;;24.93;32.21;101272.75;4557879;25;20006;-62
2024/04/15 06:56:31;;;;;;;;;;;;;;;24.92;32.10;101265.69;4565917;26;20073;-62
2024/04/15 06:58:33;;;;;;;6.05;1.58;;;;;;;24.83;31.91;101253.91;4569913;25;19931;-62
2024/04/15 07:00:37;;;;;;;5.70;1.40;;;;;;;24.87;32.06;101251.78;4552236;25;20006;-62
2024/04/15 07:02:39;;;;;;;4.88;1.20;;;;;;;24.90;32.07;101238.06;4572971;25;20011;-61
2024/04/15 07:04:41;;;;;;;5.25;1.20;;;;;;;24.80;32.13;101226.41;4557642;26;20349;-61
2024/04/15 07:06:43;;;;;;;4.55;1.27;;;;;;;24.83;32.06;101234.22;4563919;26;20519;-61
2024/04/15 07:08:49;;;;;;;6.20;1.40;;;;;;;24.84;32.22;101235.94;4569919;25;20013;-63
2024/04/15 07:10:51;;;;;;;6.28;1.38;;;;;;;24.85;32.56;101238.47;4552274;25;20021;-61
2024/04/15 07:12:53;;;;;;;7.43;1.25;;;;;;;24.86;31.57;101236.63;4573096;25;20061;-63
2024/04/15 07:14:55;;;;;;;;;;;;;;;24.86;32.30;101236.63;4561641;25;20345;-62
2024/04/15 07:16:57;;;;;;;6.35;1.30;;;;;;;24.85;31.53;101233.09;4559513;26;19947;-63
2024/04/15 07:18:58;;;;;;;5.13;1.30;;;;;;;24.86;32.38;101223.19;4570883;25;20078;-63
2024/04/15 07:21:01;;;;;;;5.28;1.38;;;;;;;24.86;32.20;101218.66;4551265;26;20078;-63
2024/04/15 07:23:03;;;;;;;6.05;1.60;;;;;;;24.87;32.23;101216.81;4590244;25;20020;-62
2024/04/15 07:25:05;;;;;;;4.50;1.30;;;;;;;24.86;32.15;101204.34;4578832;25;20001;-61
2024/04/15 07:27:07;;;;;;;5.30;1.27;;;;;;;24.82;31.30;101202.94;4555825;25;20013;-62
2024/04/15 07:29:09;;;;;;;5.32;1.30;;;;;;;24.88;31.94;101213.13;4541826;26;20389;-60
2024/04/15 07:31:11;;;;;;;;;;;;;;;24.85;32.17;101205.34;4554139;26;20006;-61
2024/04/15 07:33:13;;;;;;;4.88;1.15;;;;;;;24.79;32.16;101187.91;4570635;26;20285;-62
2024/04/15 07:35:15;;;;;;;3.47;0.90;;;;;;;24.88;31.90;101205.91;4566013;25;20017;-61
2024/04/15 07:37:19;;;;;;;5.47;1.10;;;;;;;24.84;32.07;101198.28;4555749;26;20005;-62
2024/04/15 07:39:24;;;;;;;5.93;1.15;;;;;;;24.83;31.59;101196.56;4572575;25;20045;-62
2024/04/15 07:41:26;;;;;;;5.72;1.30;;;;;;;24.86;31.72;101198.97;4550377;25;20006;-62
2024/04/15 07:43:29;;;;;;;3.97;1.35;;;;;;;24.84;32.23;101193.72;4571591;26;20001;-63
2024/04/15 07:45:34;;;;;;;6.40;1.35;;;;;;;24.90;31.50;101195.03;4566284;25;20012;-62
2024/04/15 07:47:35;;;;;;;6.20;1.08;;;;;;;24.90;31.86;101196.84;4555065;26;20020;-64
2024/04/15 07:49:41;;;;;;;4.95;1.27;;;;;;;24.87;31.94;101195.28;4572182;25;20054;-62
2024/04/15 07:51:44;;;;;;;5.57;1.10;;;;;;;24.88;32.02;101197.84;4550621;26;20065;-62
2024/04/15 07:53:48;;;;;;;5.00;1.10;;;;;;;24.87;31.51;101204.22;4570648;26;20012;-62
2024/04/15 07:55:50;;;;;;;;;;;;;;;24.90;31.44;101208.47;4567599;25;20065;-62
2024/04/15 07:57:53;;;;;;;4.68;1.25;;;;;;;24.81;31.38;101195.84;4554078;26;19991;-61
2024/04/15 07:59:55;;;;;;;4.55;1.17;;;;;;;24.86;31.96;101197.13;4571547;25;20076;-61
2024/04/15 08:01:57;;;;;;;5.45;1.20;;;;;;;24.89;31.81;101201.38;4552576;25;20067;-61
2024/04/15 08:04:02;;;;;;;6.30;1.35;;;;;;;24.88;31.93;101189.75;4566993;26;20033;-61
2024/04/15 08:06:04;;;;;;;5.28;1.30;;;;;;;24.90;31.58;101191.47;4568707;25;20073;-61
2024/04/15 08:08:08;;;;;;;4.40;1.10;;;;;;;24.87;31.36;101192.59;4552362;26;20005;-61
2024/04/15 08:10:11;;;;;;;5.45;1.00;;;;;;;24.83;31.70;101189.31;4571770;25;19997;-61
2024/04/15 08:12:12;;;;;;;5.57;1.10;;;;;;;24.88;31.89;101192.44;4552932;25;20070;-62
2024/04/15 08:14:14;;;;;;;;;;;;;;;24.86;31.66;101178.31;4566854;26;20001;-62
2024/04/15 08:16:16;;;;;;;4.30;0.90;;;;;;;24.79;31.61;101171.78;4568854;26;20026;-62
2024/04/15 08:18:18;;;;;;;4.55;1.00;;;;;;;24.86;31.64;101172.06;4550974;25;20044;-62
2024/04/15 08:20:20;;;;;;;;;;;;;;;24.85;31.31;101179.28;4572392;25;20017;-62
2024/04/15 08:22:22;;;;;;;5.97;1.10;;;;;;;24.81;31.16;101161.72;4570207;25;19922;-62
2024/04/15 08:24:24;;;;;;;5.10;1.10;;;;;;;24.82;30.99;101163.41;4579699;25;20093;-61
2024/04/15 08:26:29;;;;;;;;;;;;;;;24.84;31.64;101174.91;4567763;26;20013;-63
2024/04/15 08:28:32;;;;;;;4.03;1.13;;;;;;;24.82;31.60;101170.63;4550675;25;19930;-62
2024/04/15 08:30:35;;;;;;;6.38;1.20;;;;;;;24.91;31.56;101166.28;4571671;25;20312;-62
2024/04/15 08:32:38;;;;;;;3.53;0.80;;;;;;;24.83;31.44;101154.34;4557749;25;20366;-62
2024/04/15 08:34:40;;;;;;;3.15;0.82;;;;;;;24.79;31.24;101150.25;4549982;26;20075;-62
2024/04/15 08:36:42;;;;;;;4.22;0.98;;;;;;;24.80;31.33;101154.66;4543303;26;20010;-62
2024/04/15 08:38:45;;;;;;;4.93;1.33;;;;;;;24.78;31.42;101139.63;4560009;26;20075;-62
2024/04/15 08:40:56;;;;;;;4.05;1.20;;;;;;;24.74;31.45;101144.44;4541169;26;20002;-62
2024/04/15 08:43:03;;;;;;;4.35;1.10;;;;;;;24.81;31.24;101158.19;4553725;26;20346;-62
2024/04/15 08:45:10;;;;;;;4.85;0.88;;;;;;;24.79;31.24;101146.69;4548785;25;20014;-62
2024/04/15 08:47:23;;;;;;;4.78;1.10;;;;;;;24.77;31.18;101151.38;4543210;26;20002;-61
2024/04/15 08:49:28;;;;;;;5.95;1.02;;;;;;;24.75;30.98;101132.66;4561261;25;20002;-62
2024/04/15 08:51:30;;;;;;;5.30;1.05;;;;;;;24.72;31.25;101128.41;4541119;26;20005;-61
2024/04/15 08:53:32;;;;;;;5.93;1.00;;;;;;;24.72;30.95;101125.72;4557260;26;20017;-63
2024/04/15 08:55:33;;;;;;;;;;;;;;;24.76;30.78;101122.78;4547135;25;20408;-62
2024/04/15 08:57:39;;;;;;;5.55;1.10;;;;;;;24.69;31.55;101117.94;4542553;26;19930;-62
2024/04/15 08:59:43;;;;;;;5.15;1.02;;;;;;;24.70;30.76;101124.16;4561261;26;20021;-62
2024/04/15 09:01:45;;;;;;;4.53;1.00;;;;;;;24.68;31.35;101118.94;4540870;26;20006;-63
2024/04/15 09:03:48;;;;;;;6.22;1.50;;;;;;;24.67;30.73;101114.53;4555774;26;20013;-62
2024/04/15 09:05:51;;;;;;;5.65;0.90;;;;;;;24.65;31.58;101121.00;4547578;25;20006;-62
2024/04/15 09:07:52;;;;;;;7.00;1.27;;;;;;;24.67;30.68;101119.06;4543070;26;20073;-62
2024/04/15 09:09:54;;;;;;;;;;;;;;;24.65;30.89;101111.09;4561571;26;20013;-63
2024/04/15 09:11:56;;;;;;;5.75;1.52;;;;;;;24.62;30.83;101115.88;4540208;26;19924;-64
2024/04/15 09:13:58;;;;;;;4.88;0.90;;;;;;;24.61;31.54;101124.97;4553194;26;20454;-63
2024/04/15 09:16:00;;;;;;;4.95;1.20;;;;;;;24.63;31.37;101113.09;4550092;25;20002;-63
2024/04/15 09:18:03;;;;;;;5.30;1.27;;;;;;;24.61;30.87;101112.38;4542745;26;20034;-63
2024/04/15 09:20:06;;;;;;;7.13;1.20;;;;;;;24.62;30.99;101115.88;4560640;26;20037;-63
2024/04/15 09:22:07;;;;;;;5.13;0.95;;;;;;;24.65;31.14;101104.88;4546275;25;20006;-63
2024/04/15 09:24:10;;;;;;;4.00;1.20;;;;;;;24.60;30.86;101107.97;4575314;25;20025;-63
2024/04/15 09:26:12;;;;;;;3.70;0.90;;;;;;;24.60;31.15;101086.44;4551639;25;20006;-64
2024/04/15 09:28:14;;;;;;;;;;;;;;;24.62;31.41;101089.88;4541260;26;20017;-64
2024/04/15 09:30:16;;;;;;;4.63;1.10;;;;;;;24.60;30.83;101086.44;4561916;26;20365;-63
2024/04/15 09:32:18;;;;;;;;;;;;;;;24.62;30.89;101078.25;4539138;26;20480;-62
2024/04/15 09:34:21;;;;;;;4.28;1.00;;;;;;;24.55;31.18;101077.97;4548223;26;19924;-61
2024/04/15 09:36:23;;;;;;;;;;;;;;;24.60;31.33;101075.69;4555185;26;20002;-62
2024/04/15 09:38:27;;;;;;;7.05;1.55;;;;;;;24.58;30.88;101079.50;4540493;26;19947;-63
2024/04/15 09:40:30;;;;;;;4.07;0.98;;;;;;;24.59;31.14;101068.63;4562569;25;20001;-63